Time;durP1;ratioP1;P1;durP2;ratioP2;P2;SDS_P1;SDS_P2;PMS_P1;PMS_P2;Temp;Humidity;BMP_temperature;BMP_pressure;BME280_temperature;BME280_humidity;BME280_pressure;Samples;Min_cycle;Max_cycle;Signal;HPM_P1;HPM_P2
2023/07/01 00:00:07;;;;;;;4.68;2.75;;;;;;;17.64;72.59;98918.97;5002062;28;20050;-89
2023/07/01 00:02:36;;;;;;;4.78;2.67;;;;;;;17.63;72.72;98928.28;5000692;28;20033;-88
2023/07/01 00:05:06;;;;;;;7.28;2.92;;;;;;;17.63;72.73;98928.28;5001596;28;20080;-88
2023/07/01 00:07:32;;;;;;;5.00;3.10;;;;;;;17.62;73.10;98916.59;4999822;28;20041;-89
2023/07/01 00:09:58;;;;;;;4.72;3.13;;;;;;;17.62;72.77;98915.78;5000749;28;20040;-87
2023/07/01 00:12:26;;;;;;;4.28;3.17;;;;;;;17.57;72.94;98912.09;4968923;28;20010;-87
2023/07/01 00:14:54;;;;;;;3.85;2.92;;;;;;;17.64;73.14;98918.97;4983967;28;20029;-87
2023/07/01 00:17:20;;;;;;;3.67;2.78;;;;;;;17.67;73.30;98910.16;5001261;28;20022;-87
2023/07/01 00:19:46;;;;;;;4.28;2.78;;;;;;;17.62;72.38;98896.72;5000631;28;20028;-88
2023/07/01 00:22:12;;;;;;;4.53;2.60;;;;;;;17.61;73.06;98917.69;4983765;28;20125;-90
2023/07/01 00:24:38;;;;;;;6.05;3.40;;;;;;;17.72;72.36;98921.69;5000964;28;20611;-89
2023/07/01 00:27:06;;;;;;;4.05;2.55;;;;;;;17.83;71.82;98918.63;5001306;28;20030;-89
2023/07/01 00:29:31;;;;;;;3.30;2.55;;;;;;;17.61;72.46;98923.16;4980651;28;20480;-89
2023/07/01 00:31:57;;;;;;;3.75;2.65;;;;;;;17.54;73.06;98933.75;4990063;28;20021;-90
2023/07/01 00:34:22;;;;;;;4.85;2.70;;;;;;;17.48;73.40;98919.50;5001303;28;20022;-89
2023/07/01 00:36:49;;;;;;;7.03;3.10;;;;;;;17.47;73.50;98911.66;4968182;28;20025;-90
2023/07/01 00:39:15;;;;;;;5.70;2.92;;;;;;;17.41;73.42;98916.50;5001098;28;20017;-89
2023/07/01 00:41:41;;;;;;;4.35;2.83;;;;;;;17.43;73.72;98913.44;4984602;28;20087;-89
2023/07/01 00:44:07;;;;;;;5.63;2.50;;;;;;;17.37;73.57;98921.78;5000318;28;20025;-89
2023/07/01 00:46:33;;;;;;;4.97;2.70;;;;;;;17.22;73.75;98911.41;4979636;28;20058;-89
2023/07/01 00:49:03;;;;;;;3.55;2.38;;;;;;;17.17;74.11;98917.03;4964424;28;20030;-89
2023/07/01 00:51:28;;;;;;;7.63;2.80;;;;;;;17.08;74.04;98906.19;4996801;28;20026;-89
2023/07/01 00:53:55;;;;;;;6.57;2.90;;;;;;;17.14;74.12;98915.78;4963951;28;20081;-89
2023/07/01 00:56:21;;;;;;;4.55;2.88;;;;;;;17.16;74.01;98916.25;4980905;28;20175;-90
2023/07/01 00:58:48;;;;;;;4.13;2.90;;;;;;;17.10;73.98;98905.84;4980628;28;20146;-88
2023/07/01 01:01:14;;;;;;;3.47;2.92;;;;;;;17.13;73.99;98908.72;4963875;28;20025;-88
2023/07/01 01:04:00;;;;;;;6.53;2.80;;;;;;;17.17;73.55;98908.88;4964201;28;20397;-88
2023/07/01 01:06:33;;;;;;;5.47;2.80;;;;;;;17.07;73.86;98901.06;4980919;28;20108;-88
2023/07/01 01:09:03;;;;;;;3.95;3.08;;;;;;;17.05;74.06;98914.19;4964861;28;20365;-88
2023/07/01 01:11:31;;;;;;;6.32;3.10;;;;;;;17.02;73.93;98907.47;4948808;28;20032;-88
2023/07/01 01:13:59;;;;;;;8.50;3.17;;;;;;;16.97;74.41;98902.19;4979937;28;20091;-88
2023/07/01 01:16:25;;;;;;;5.47;3.10;;;;;;;16.94;74.89;98903.63;4979980;28;20038;-88
2023/07/01 01:18:51;;;;;;;9.88;3.75;;;;;;;16.86;74.99;98890.84;4980941;28;20034;-88
2023/07/01 01:21:18;;;;;;;9.50;3.17;;;;;;;16.84;75.14;98889.56;4963803;28;20022;-87
2023/07/01 01:24:01;;;;;;;4.97;2.72;;;;;;;16.89;74.79;98892.94;4979288;28;20054;-88
2023/07/01 01:26:28;;;;;;;5.88;3.15;;;;;;;16.87;74.43;98894.34;4963968;28;20401;-88
2023/07/01 01:28:56;;;;;;;6.00;3.55;;;;;;;16.72;75.00;98892.91;4979506;28;20035;-88
2023/07/01 01:31:28;;;;;;;5.05;3.17;;;;;;;16.69;75.11;98897.06;4979544;28;20041;-89
2023/07/01 01:33:56;;;;;;;7.45;3.35;;;;;;;16.70;74.83;98900.59;4981083;28;20018;-88
2023/07/01 01:36:37;;;;;;;4.72;3.67;;;;;;;16.67;75.45;98903.97;4995797;28;20113;-88
2023/07/01 01:39:05;;;;;;;4.25;3.33;;;;;;;16.65;75.32;98901.56;4978892;28;20532;-88
2023/07/01 01:42:08;;;;;;;5.32;3.78;;;;;;;16.69;75.97;98907.16;4996171;28;20034;-89
2023/07/01 01:44:47;;;;;;;10.93;4.25;;;;;;;16.72;75.38;98903.78;4944863;28;20035;-88
2023/07/01 01:47:17;;;;;;;5.70;4.28;;;;;;;16.62;76.13;98895.94;4958051;28;20062;-88
2023/07/01 01:49:47;;;;;;;6.18;3.80;;;;;;;16.65;75.66;98895.31;4928206;28;20110;-88
2023/07/01 01:52:14;;;;;;;5.90;4.45;;;;;;;16.63;75.85;98894.84;4943786;28;20066;-87
2023/07/01 01:54:40;;;;;;;5.07;4.07;;;;;;;16.53;75.90;98882.38;4928423;28;20026;-88
2023/07/01 01:57:06;;;;;;;5.43;3.70;;;;;;;16.51;75.93;98887.31;4942381;28;20030;-88
2023/07/01 01:59:31;;;;;;;5.57;4.00;;;;;;;16.51;76.29;98896.25;4943747;28;20039;-88
2023/07/01 02:01:57;;;;;;;5.68;4.18;;;;;;;16.52;76.06;98892.44;4944071;28;20030;-88
2023/07/01 02:04:25;;;;;;;5.35;4.07;;;;;;;16.50;75.98;98888.44;4927331;28;20038;-88
2023/07/01 02:06:51;;;;;;;7.65;4.30;;;;;;;16.55;75.61;98891.00;4976531;28;20034;-88
2023/07/01 02:09:16;;;;;;;5.85;3.58;;;;;;;16.56;75.58;98889.91;4942544;28;20043;-87
2023/07/01 02:11:43;;;;;;;4.20;3.25;;;;;;;16.41;75.79;98885.72;4928601;28;20082;-87
2023/07/01 02:14:10;;;;;;;4.70;3.53;;;;;;;16.44;75.75;98884.28;4959376;28;20023;-90
2023/07/01 02:16:38;;;;;;;5.55;3.40;;;;;;;16.39;76.00;98882.50;4977279;28;20093;-88
2023/07/01 02:19:07;;;;;;;5.05;3.70;;;;;;;16.43;75.80;98885.41;4979646;28;20061;-88
2023/07/01 02:21:33;;;;;;;6.15;4.38;;;;;;;16.39;76.15;98893.38;4995094;28;20029;-90
2023/07/01 02:24:00;;;;;;;4.90;3.30;;;;;;;16.36;76.51;98896.75;4974644;28;20049;-87
2023/07/01 02:26:26;;;;;;;9.25;3.88;;;;;;;16.29;76.50;98878.22;4976915;28;20023;-88
2023/07/01 02:28:52;;;;;;;6.38;3.42;;;;;;;16.24;76.42;98878.34;4975891;28;20041;-88
2023/07/01 02:31:18;;;;;;;6.90;3.33;;;;;;;16.29;76.56;98893.69;4976572;28;20026;-88
2023/07/01 02:33:45;;;;;;;8.43;3.80;;;;;;;16.27;76.51;98890.50;4947024;28;20031;-88
2023/07/01 02:36:11;;;;;;;6.40;3.80;;;;;;;16.28;76.54;98889.38;4994580;28;20070;-88
2023/07/01 02:38:39;;;;;;;6.03;3.25;;;;;;;16.28;75.89;98892.91;4979456;28;20105;-88
2023/07/01 02:41:04;;;;;;;5.72;3.45;;;;;;;16.29;75.76;98882.81;4979840;28;20481;-88
2023/07/01 02:43:31;;;;;;;5.90;3.22;;;;;;;16.24;76.12;98889.22;4963194;28;20033;-88
2023/07/01 02:45:57;;;;;;;5.15;3.58;;;;;;;16.37;75.70;98895.63;4967155;28;20421;-88
2023/07/01 02:48:22;;;;;;;5.88;3.80;;;;;;;16.28;75.98;98894.81;4996687;28;20061;-88
2023/07/01 02:50:48;;;;;;;10.13;3.63;;;;;;;16.26;76.14;98884.25;4997799;28;20026;-88
2023/07/01 02:53:16;;;;;;;4.28;3.58;;;;;;;16.17;76.11;98886.19;4982825;28;20041;-88
2023/07/01 02:55:42;;;;;;;5.88;3.42;;;;;;;16.14;76.16;98884.91;4983727;28;20023;-88
2023/07/01 02:58:07;;;;;;;5.60;3.30;;;;;;;16.23;75.76;98890.34;4967450;28;20081;-88
2023/07/01 03:00:35;;;;;;;4.10;3.70;;;;;;;16.10;76.46;98875.78;5001151;28;20026;-88
2023/07/01 03:03:07;;;;;;;7.07;4.55;;;;;;;16.17;76.76;98886.97;4984728;28;20111;-88
2023/07/01 03:05:33;;;;;;;;;;;;;;;16.21;76.90;98883.59;5001150;28;20030;-88
2023/07/01 03:07:59;;;;;;;7.55;4.10;;;;;;;16.12;76.45;98881.72;5015849;28;20064;-88
2023/07/01 03:10:26;;;;;;;5.28;4.15;;;;;;;16.17;76.50;98881.53;4983874;28;20497;-88
2023/07/01 03:12:54;;;;;;;6.13;3.95;;;;;;;16.12;76.82;98892.56;4999377;28;20054;-88
2023/07/01 03:15:19;;;;;;;7.53;3.95;;;;;;;16.21;76.95;98892.59;4998322;28;20129;-88
2023/07/01 03:17:47;;;;;;;8.73;4.43;;;;;;;16.24;76.33;98883.78;4983208;28;20029;-88
2023/07/01 03:20:22;;;;;;;5.38;3.85;;;;;;;16.42;74.69;98876.44;4984296;28;20116;-88
2023/07/01 03:22:53;;;;;;;8.10;3.67;;;;;;;16.60;74.06;98881.88;4999322;28;20030;-88
2023/07/01 03:25:19;;;;;;;6.22;3.45;;;;;;;16.66;73.32;98883.31;5001402;28;20026;-88
2023/07/01 03:27:45;;;;;;;6.57;3.55;;;;;;;16.82;73.25;98895.31;4983591;28;20048;-88
2023/07/01 03:30:13;;;;;;;6.63;3.35;;;;;;;16.88;73.13;98898.69;4983700;28;20026;-88
2023/07/01 03:32:40;;;;;;;4.82;3.70;;;;;;;16.95;72.74;98896.28;4984109;28;20027;-88
2023/07/01 03:35:09;;;;;;;4.97;3.00;;;;;;;16.88;72.85;98887.81;4999038;28;20101;-88
2023/07/01 03:37:41;;;;;;;7.93;3.28;;;;;;;16.91;73.37;98889.88;4999917;28;20030;-88
2023/07/01 03:40:23;;;;;;;6.82;3.42;;;;;;;16.78;73.74;98878.03;4928538;29;20052;-88
2023/07/01 03:42:49;;;;;;;4.93;3.40;;;;;;;16.83;73.75;98888.78;4876070;29;20036;-89
2023/07/01 03:45:17;;;;;;;5.43;3.55;;;;;;;16.80;73.91;98885.88;4893388;29;20070;-89
2023/07/01 03:47:45;;;;;;;4.28;3.60;;;;;;;16.76;73.72;98891.94;4937827;29;20067;-89
2023/07/01 03:50:11;;;;;;;4.00;3.17;;;;;;;16.80;73.89;98894.03;4944161;29;20035;-89
2023/07/01 03:52:37;;;;;;;5.68;3.25;;;;;;;16.81;73.93;98888.31;4898555;29;20082;-89
2023/07/01 03:55:06;;;;;;;6.28;3.70;;;;;;;16.82;73.60;98889.88;4893628;29;20024;-88
2023/07/01 03:57:36;;;;;;;6.60;3.63;;;;;;;16.85;73.78;98885.72;4894200;29;20032;-89
2023/07/01 04:00:19;;;;;;;5.40;3.33;;;;;;;16.89;73.26;98886.69;4925616;29;20039;-89
2023/07/01 04:03:08;;;;;;;3.92;3.35;;;;;;;17.05;73.34;98895.13;4933240;29;20186;-89
2023/07/01 04:05:35;;;;;;;4.65;3.63;;;;;;;17.06;73.53;98885.88;4915492;29;20047;-89
2023/07/01 04:08:01;;;;;;;4.93;3.63;;;;;;;17.09;73.13;98896.09;4908402;29;20104;-89
2023/07/01 04:10:27;;;;;;;6.90;3.67;;;;;;;17.20;72.98;98891.09;4913948;29;20040;-89
2023/07/01 04:12:55;;;;;;;7.28;3.42;;;;;;;17.19;72.29;98892.25;4942707;29;20047;-89
2023/07/01 04:15:21;;;;;;;6.47;3.55;;;;;;;17.34;72.22;98891.69;4941958;29;20031;-89
2023/07/01 04:17:51;;;;;;;6.85;2.95;;;;;;;17.42;71.29;98892.81;4943023;29;20032;-89
2023/07/01 04:20:18;;;;;;;7.03;3.42;;;;;;;17.43;70.69;98897.09;4942105;29;20600;-89
2023/07/01 04:22:44;;;;;;;5.90;2.58;;;;;;;17.57;70.66;98894.97;4957963;29;20023;-88
2023/07/01 04:25:10;;;;;;;25.98;5.22;;;;;;;17.61;70.30;98906.03;4974547;28;20015;-89
2023/07/01 04:27:36;;;;;;;3.75;2.95;;;;;;;17.66;69.68;98912.09;4957430;29;20067;-89
2023/07/01 04:30:07;;;;;;;4.65;3.10;;;;;;;17.68;69.56;98890.78;4942871;29;20023;-89
2023/07/01 04:32:33;;;;;;;5.90;3.42;;;;;;;17.77;69.12;98893.47;4958694;29;20031;-88
2023/07/01 04:35:00;;;;;;;3.35;2.90;;;;;;;17.86;69.23;98899.69;4941558;29;20449;-88
2023/07/01 04:37:27;;;;;;;6.85;3.28;;;;;;;17.91;68.64;98896.78;4976406;28;20125;-89
2023/07/01 04:39:54;;;;;;;5.38;3.13;;;;;;;17.94;68.40;98892.59;4981491;28;20124;-88
2023/07/01 04:42:20;;;;;;;8.07;3.33;;;;;;;18.01;68.20;98900.25;4965957;28;20034;-89
2023/07/01 04:44:53;;;;;;;6.05;3.38;;;;;;;18.17;68.39;98904.78;4981821;28;20029;-89
2023/07/01 04:47:27;;;;;;;7.30;3.40;;;;;;;18.20;67.75;98892.44;4951271;28;20574;-89
2023/07/01 04:49:53;;;;;;;4.00;3.03;;;;;;;18.36;67.40;98901.63;4950570;28;20500;-89
2023/07/01 04:52:22;;;;;;;4.00;3.22;;;;;;;18.40;67.10;98885.38;4981757;28;20026;-89
2023/07/01 04:54:48;;;;;;;7.18;3.13;;;;;;;18.44;66.56;98893.72;4964129;28;20022;-89
2023/07/01 04:57:13;;;;;;;13.88;3.25;;;;;;;18.49;66.39;98886.13;4949135;28;20095;-89
2023/07/01 04:59:39;;;;;;;5.93;2.92;;;;;;;18.57;65.83;98892.63;4965292;28;20038;-89
2023/07/01 05:02:05;;;;;;;4.20;3.20;;;;;;;18.66;66.09;98889.84;4962937;28;20042;-89
2023/07/01 05:04:30;;;;;;;3.10;2.80;;;;;;;18.77;65.23;98889.09;4980955;28;20091;-89
2023/07/01 05:06:56;;;;;;;4.88;3.08;;;;;;;18.86;65.59;98885.50;4948629;28;20049;-88
2023/07/01 05:09:21;;;;;;;4.07;3.03;;;;;;;19.05;65.12;98885.81;4964572;28;20030;-89
2023/07/01 05:11:47;;;;;;;8.07;3.05;;;;;;;19.16;64.53;98897.91;4965132;28;20034;-89
2023/07/01 05:14:12;;;;;;;6.78;2.80;;;;;;;19.42;62.17;98893.28;4964291;28;20034;-89
2023/07/01 05:16:38;;;;;;;3.83;2.80;;;;;;;19.43;61.79;98890.22;4963310;28;20409;-89
2023/07/01 05:19:04;;;;;;;3.88;2.65;;;;;;;19.52;60.81;98890.91;4949602;28;20485;-89
2023/07/01 05:21:29;;;;;;;3.85;2.95;;;;;;;19.66;60.20;98889.78;4948796;28;20033;-91
2023/07/01 05:23:55;;;;;;;5.28;2.95;;;;;;;19.66;59.89;98884.31;4970000;28;20010;-90
2023/07/01 05:26:20;;;;;;;7.80;2.60;;;;;;;19.81;59.82;98882.88;4983883;28;20022;-90
2023/07/01 05:28:46;;;;;;;3.38;2.78;;;;;;;19.86;60.95;98885.38;4965350;28;20022;-89
2023/07/01 05:31:11;;;;;;;3.05;2.42;;;;;;;19.99;60.51;98884.22;4948800;28;20038;-90
2023/07/01 05:33:37;;;;;;;5.47;2.78;;;;;;;20.16;60.18;98869.50;4948454;28;20037;-90
2023/07/01 05:36:02;;;;;;;12.63;2.88;;;;;;;20.22;59.21;98865.41;4948867;28;20034;-90
2023/07/01 05:38:28;;;;;;;4.40;2.67;;;;;;;20.35;59.18;98871.63;4965115;28;20057;-92
2023/07/01 05:40:53;;;;;;;4.57;2.92;;;;;;;20.36;58.34;98863.09;4965445;28;20049;-90
2023/07/01 05:43:19;;;;;;;4.07;2.85;;;;;;;20.49;58.00;98869.31;4966094;28;20030;-89
2023/07/01 05:45:44;;;;;;;6.72;2.65;;;;;;;20.54;57.41;98862.78;4963997;28;20055;-90
2023/07/01 05:48:10;;;;;;;4.70;2.90;;;;;;;20.66;57.52;98862.00;4964798;28;20037;-90
2023/07/01 05:50:36;;;;;;;4.55;2.85;;;;;;;20.83;57.59;98869.09;4965209;28;20027;-92
2023/07/01 05:53:01;;;;;;;6.63;4.28;;;;;;;20.92;57.84;98878.75;4948529;28;20026;-92
2023/07/01 05:55:27;;;;;;;14.82;11.25;;;;;;;21.02;57.26;98871.94;4965064;28;20006;-91
2023/07/01 05:57:52;;;;;;;5.72;5.10;;;;;;;21.15;56.25;98867.22;4948035;28;20024;-91
2023/07/01 06:00:18;;;;;;;7.32;3.50;;;;;;;21.30;55.56;98862.91;4963257;28;20025;-90
2023/07/01 06:02:43;;;;;;;3.88;3.13;;;;;;;21.53;54.48;98871.31;4984039;28;20026;-90
2023/07/01 06:05:09;;;;;;;5.35;3.10;;;;;;;21.52;54.59;98870.53;4965488;28;20492;-91
2023/07/01 06:07:34;;;;;;;5.95;3.08;;;;;;;21.62;55.67;98868.41;4984825;28;20084;-91
2023/07/01 06:10:00;;;;;;;4.50;2.97;;;;;;;21.74;54.05;98862.81;4983642;28;20491;-90
2023/07/01 06:12:26;;;;;;;5.82;4.32;;;;;;;21.89;54.88;98864.72;4984479;28;20037;-92
2023/07/01 06:14:51;;;;;;;6.25;3.85;;;;;;;22.11;54.15;98865.22;4984039;28;20084;-92
2023/07/01 06:17:16;;;;;;;7.65;3.88;;;;;;;22.22;55.17;98855.28;4982385;28;20037;-91
2023/07/01 06:19:42;;;;;;;8.27;4.00;;;;;;;22.41;55.35;98851.78;4984938;28;20029;-92
2023/07/01 06:22:07;;;;;;;8.23;3.55;;;;;;;22.57;52.67;98858.00;4984635;28;20025;-91
2023/07/01 06:24:33;;;;;;;4.28;3.00;;;;;;;22.77;53.45;98861.53;4983590;28;20034;-91
2023/07/01 06:26:58;;;;;;;3.40;2.97;;;;;;;22.92;53.34;98870.03;4984113;28;20030;-91
2023/07/01 06:29:24;;;;;;;6.53;3.88;;;;;;;22.99;51.52;98862.75;4987549;28;20049;-91
2023/07/01 06:31:49;;;;;;;3.15;2.75;;;;;;;23.16;51.49;98872.50;4987484;28;20026;-91
2023/07/01 06:34:15;;;;;;;4.32;2.88;;;;;;;23.25;50.68;98865.97;4987575;28;20018;-91
2023/07/01 06:36:41;;;;;;;6.82;3.05;;;;;;;23.34;52.11;98858.25;4987398;28;20117;-91
2023/07/01 06:39:07;;;;;;;6.25;3.33;;;;;;;23.39;51.10;98858.75;4971761;28;20053;-90
2023/07/01 06:41:32;;;;;;;8.68;3.95;;;;;;;23.57;51.70;98856.31;4987248;28;20037;-91
2023/07/01 06:43:58;;;;;;;7.53;6.55;;;;;;;23.69;50.95;98871.78;4971742;28;20026;-91
2023/07/01 06:46:23;;;;;;;9.20;3.42;;;;;;;23.86;50.38;98869.72;4984499;28;20050;-91
2023/07/01 06:49:07;;;;;;;5.70;3.35;;;;;;;23.96;51.75;98869.09;4982925;28;20389;-92
2023/07/01 06:51:32;;;;;;;4.13;3.00;;;;;;;24.04;50.13;98870.00;4984839;28;20504;-90
2023/07/01 06:53:58;;;;;;;5.25;3.00;;;;;;;24.03;50.69;98849.97;4966799;28;20157;-91
2023/07/01 06:56:24;;;;;;;7.00;3.00;;;;;;;24.17;50.23;98855.63;4983054;28;20100;-90
2023/07/01 06:58:49;;;;;;;5.90;2.95;;;;;;;24.36;50.49;98857.47;4985530;28;20026;-91
2023/07/01 07:01:15;;;;;;;3.95;3.25;;;;;;;24.48;50.02;98858.38;4984040;28;20030;-90
2023/07/01 07:03:40;;;;;;;4.00;3.00;;;;;;;24.54;49.81;98856.91;4968535;28;20026;-90
2023/07/01 07:06:06;;;;;;;5.90;3.03;;;;;;;24.73;49.48;98853.19;4967448;28;20086;-91
2023/07/01 07:08:32;;;;;;;6.10;3.10;;;;;;;24.85;48.72;98861.22;4984211;28;20084;-90
2023/07/01 07:10:58;;;;;;;6.35;4.15;;;;;;;25.01;48.83;98859.03;4985907;28;20030;-91
2023/07/01 07:13:23;;;;;;;5.10;3.10;;;;;;;25.14;48.34;98851.28;4968702;28;20412;-91
2023/07/01 07:15:49;;;;;;;3.30;3.00;;;;;;;25.09;49.46;98848.88;4985268;28;20022;-91
2023/07/01 07:18:14;;;;;;;12.63;3.88;;;;;;;25.15;49.82;98836.34;4968196;28;20022;-91
2023/07/01 07:20:40;;;;;;;5.60;3.83;;;;;;;25.39;47.45;98843.25;4967899;28;20022;-92
2023/07/01 07:23:06;;;;;;;5.78;2.60;;;;;;;25.48;48.48;98836.63;4967751;28;20492;-91
2023/07/01 07:25:35;;;;;;;7.38;3.40;;;;;;;25.61;46.40;98841.47;4967954;28;20090;-91
2023/07/01 07:28:01;;;;;;;5.82;3.20;;;;;;;25.72;46.22;98843.50;4950988;28;20018;-93
2023/07/01 07:30:27;;;;;;;9.20;3.65;;;;;;;25.83;46.61;98838.84;4979877;28;20105;-90
2023/07/01 07:32:52;;;;;;;3.95;3.08;;;;;;;25.98;45.85;98834.22;4993832;28;20034;-91
2023/07/01 07:35:18;;;;;;;3.28;2.88;;;;;;;25.94;46.67;98828.72;4967562;28;20053;-91
2023/07/01 07:37:44;;;;;;;5.63;3.20;;;;;;;26.18;46.97;98851.31;4967213;28;20027;-93
2023/07/01 07:40:10;;;;;;;7.03;2.90;;;;;;;26.15;46.48;98835.53;4965901;28;20018;-92
2023/07/01 07:42:35;;;;;;;4.93;2.60;;;;;;;26.33;45.66;98835.59;4967440;28;20057;-94
2023/07/01 07:45:04;;;;;;;3.88;3.22;;;;;;;26.51;44.66;98841.19;4967843;28;20026;-92
2023/07/01 07:47:30;;;;;;;3.88;2.30;;;;;;;26.50;43.52;98840.41;4968136;28;20138;-93
2023/07/01 07:49:55;;;;;;;2.75;2.42;;;;;;;26.55;43.75;98822.69;4966822;28;20026;-92
2023/07/01 07:52:21;;;;;;;4.75;2.60;;;;;;;26.69;42.02;98828.28;4967816;28;20034;-93
2023/07/01 07:54:46;;;;;;;4.57;2.90;;;;;;;26.81;41.58;98840.91;4964567;28;20023;-93
2023/07/01 07:57:13;;;;;;;6.72;3.13;;;;;;;26.86;41.98;98845.28;4952569;28;20096;-92
2023/07/01 07:59:42;;;;;;;3.30;2.60;;;;;;;26.92;41.84;98833.47;4967893;28;20054;-93
2023/07/01 08:02:08;;;;;;;6.32;2.63;;;;;;;26.97;42.23;98840.56;4970127;28;20023;-93
2023/07/01 08:04:35;;;;;;;3.10;2.53;;;;;;;26.99;42.60;98825.16;4959226;28;20027;-91
2023/07/01 08:07:00;;;;;;;5.82;3.05;;;;;;;27.20;42.65;98848.50;4951082;28;20029;-91
2023/07/01 08:09:26;;;;;;;4.93;3.10;;;;;;;27.17;42.15;98836.25;4998517;28;20026;-90
2023/07/01 08:11:51;;;;;;;4.72;3.15;;;;;;;27.25;43.23;98822.44;4986590;28;20030;-92
2023/07/01 08:14:20;;;;;;;6.53;3.13;;;;;;;27.33;42.76;98821.28;4973401;28;20022;-92
2023/07/01 08:16:45;;;;;;;3.95;2.95;;;;;;;27.37;43.25;98831.16;4971339;28;20018;-91
2023/07/01 08:19:11;;;;;;;5.90;3.58;;;;;;;27.46;43.50;98819.72;4971205;28;20476;-93
2023/07/01 08:21:37;;;;;;;3.72;2.97;;;;;;;27.58;42.64;98822.06;4970345;28;20018;-92
2023/07/01 08:24:12;;;;;;;6.07;2.95;;;;;;;27.75;43.40;98823.22;4974184;28;20196;-92
2023/07/01 08:26:37;;;;;;;3.45;2.58;;;;;;;27.86;42.41;98828.75;5004335;28;20021;-92
2023/07/01 08:29:05;;;;;;;4.72;3.30;;;;;;;27.93;41.12;98828.75;4973261;28;20026;-92
2023/07/01 08:31:31;;;;;;;3.83;2.50;;;;;;;28.00;37.56;98814.91;4979472;28;20042;-91
2023/07/01 08:33:58;;;;;;;4.32;3.08;;;;;;;28.08;39.27;98818.44;4955589;28;20022;-92
2023/07/01 08:36:24;;;;;;;4.03;2.78;;;;;;;28.09;38.95;98805.38;4987595;28;20053;-91
2023/07/01 08:38:49;;;;;;;4.38;2.35;;;;;;;28.24;36.91;98806.13;4986206;28;20026;-90
2023/07/01 08:41:16;;;;;;;5.13;2.20;;;;;;;28.28;36.12;98801.34;4982497;28;20026;-91
2023/07/01 08:43:41;;;;;;;7.22;4.10;;;;;;;28.42;37.12;98804.84;5000928;28;20033;-92
2023/07/01 08:46:09;;;;;;;2.90;2.28;;;;;;;28.48;37.38;98805.22;4965876;28;20051;-92
2023/07/01 08:48:35;;;;;;;2.63;1.92;;;;;;;28.42;36.94;98791.00;4969524;28;20054;-91
2023/07/01 08:51:16;;;;;;;3.72;2.20;;;;;;;28.61;37.59;98808.34;4980636;28;20031;-92
2023/07/01 08:53:41;;;;;;;5.53;2.65;;;;;;;28.71;36.74;98803.94;4986448;28;20026;-91
2023/07/01 08:56:08;;;;;;;3.13;2.05;;;;;;;28.66;38.55;98787.72;4986068;28;20033;-91
2023/07/01 08:58:34;;;;;;;4.78;2.60;;;;;;;28.85;38.14;98803.84;4987079;28;20133;-92
2023/07/01 09:01:00;;;;;;;4.93;2.70;;;;;;;28.97;37.97;98803.38;4967296;28;20061;-91
2023/07/01 09:03:28;;;;;;;4.22;2.85;;;;;;;29.04;37.02;98793.44;4960994;28;20500;-93
2023/07/01 09:05:54;;;;;;;3.67;2.80;;;;;;;28.95;36.59;98797.47;4960926;28;20031;-93
2023/07/01 09:08:20;;;;;;;3.53;2.63;;;;;;;29.09;37.08;98798.53;4961090;28;20026;-92
2023/07/01 09:10:47;;;;;;;3.38;2.42;;;;;;;29.08;36.79;98794.19;4963146;28;20033;-92
2023/07/01 09:13:13;;;;;;;3.00;2.20;;;;;;;29.10;35.97;98783.50;4946984;28;20034;-92
2023/07/01 09:15:57;;;;;;;3.10;2.60;;;;;;;29.12;36.88;98783.91;4962774;28;20038;-91
2023/07/01 09:18:28;;;;;;;3.40;2.05;;;;;;;29.33;34.54;98791.25;4963644;28;20030;-90
2023/07/01 09:20:53;;;;;;;;;;;;;;;29.37;33.47;98790.00;4946943;28;20499;-90
2023/07/01 09:23:26;;;;;;;3.45;2.10;;;;;;;29.44;32.26;98794.69;4963266;28;19910;-90
2023/07/01 09:25:54;;;;;;;3.90;2.10;;;;;;;29.12;32.47;98781.13;4981235;28;20051;-91
2023/07/01 09:28:32;;;;;;;3.28;2.38;;;;;;;29.15;34.67;98778.31;4977969;28;20066;-91
2023/07/01 09:31:07;;;;;;;6.13;2.17;;;;;;;29.23;33.50;98770.72;4979687;28;20042;-91
2023/07/01 09:33:34;;;;;;;2.60;1.83;;;;;;;29.30;33.03;98767.91;4981153;28;20491;-91
2023/07/01 09:36:03;;;;;;;3.17;1.73;;;;;;;29.21;31.31;98765.59;4945725;28;20045;-90
2023/07/01 09:38:32;;;;;;;3.65;2.10;;;;;;;29.40;32.11;98774.53;4948603;28;20412;-91
2023/07/01 09:41:23;;;;;;;2.40;1.83;;;;;;;29.34;32.09;98765.09;4947607;28;20037;-91
2023/07/01 09:43:48;;;;;;;3.28;2.30;;;;;;;29.48;33.30;98769.72;4963177;28;20034;-91
2023/07/01 09:46:14;;;;;;;2.50;1.80;;;;;;;29.48;31.63;98761.38;4952169;28;20051;-92
2023/07/01 09:48:53;;;;;;;2.83;1.95;;;;;;;29.55;31.45;98756.56;4981654;28;20066;-91
2023/07/01 09:51:20;;;;;;;4.20;1.85;;;;;;;29.54;30.96;98748.66;4980817;28;20029;-92
2023/07/01 09:53:45;;;;;;;3.85;1.70;;;;;;;29.47;31.09;98743.97;4981697;28;20058;-91
2023/07/01 09:56:12;;;;;;;3.10;1.92;;;;;;;29.62;32.14;98761.25;4982642;28;20106;-91
2023/07/01 09:58:42;;;;;;;2.65;1.75;;;;;;;29.58;29.68;98736.31;4968084;28;20011;-91
2023/07/01 10:01:07;;;;;;;2.47;1.65;;;;;;;29.66;29.77;98750.91;4985475;28;20025;-91
2023/07/01 10:03:33;;;;;;;2.60;1.90;;;;;;;29.66;30.39;98739.03;4997926;28;20027;-89
2023/07/01 10:05:59;;;;;;;4.88;2.20;;;;;;;29.86;29.95;98764.97;4998307;28;20039;-89
2023/07/01 10:08:28;;;;;;;5.00;1.92;;;;;;;29.88;30.54;98745.13;4967342;28;20034;-90
2023/07/01 10:11:16;;;;;;;2.60;1.75;;;;;;;29.95;25.04;98756.94;4968140;28;20027;-90
2023/07/01 10:13:44;;;;;;;2.25;1.42;;;;;;;30.04;26.70;98748.13;4982642;28;20027;-90
2023/07/01 10:16:10;;;;;;;5.38;1.60;;;;;;;30.18;24.26;98752.72;4964603;28;20027;-91
2023/07/01 10:18:35;;;;;;;2.75;1.30;;;;;;;30.11;22.47;98748.03;4950561;28;20485;-91
2023/07/01 10:21:20;;;;;;;3.97;1.70;;;;;;;30.26;26.55;98756.16;4997653;28;20030;-90
2023/07/01 10:23:46;;;;;;;4.63;2.20;;;;;;;30.23;28.07;98749.44;4998869;28;20109;-90
2023/07/01 10:26:42;;;;;;;2.70;1.75;;;;;;;30.34;28.65;98752.94;4983427;28;20045;-91
2023/07/01 10:29:30;;;;;;;3.45;1.80;;;;;;;30.43;27.28;98746.84;4983797;28;20038;-91
2023/07/01 10:32:11;;;;;;;3.10;1.77;;;;;;;30.42;27.47;98734.16;5000498;28;20054;-91
2023/07/01 10:35:03;;;;;;;5.85;2.00;;;;;;;30.53;27.45;98722.91;4998553;28;20113;-90
2023/07/01 10:37:34;;;;;;;3.20;1.55;;;;;;;30.55;28.63;98715.72;4980107;28;20119;-91
2023/07/01 10:40:07;;;;;;;5.63;1.80;;;;;;;30.52;28.63;98710.19;4965852;28;20023;-90
2023/07/01 10:42:34;;;;;;;3.17;1.70;;;;;;;30.50;27.39;98718.16;4965560;28;20213;-90
2023/07/01 10:45:27;;;;;;;2.92;1.90;;;;;;;30.53;28.39;98718.13;4980990;28;20027;-90
2023/07/01 10:47:52;;;;;;;2.60;1.63;;;;;;;30.71;28.25;98717.06;4991533;28;20055;-90
2023/07/01 10:50:18;;;;;;;3.15;1.50;;;;;;;30.66;23.23;98706.44;5015694;28;20544;-90
2023/07/01 10:52:56;;;;;;;1.88;1.23;;;;;;;30.75;23.59;98713.00;4997902;28;20432;-91
2023/07/01 10:55:49;;;;;;;3.42;1.52;;;;;;;30.86;23.92;98698.16;5012126;28;20049;-90
2023/07/01 10:58:21;;;;;;;2.65;1.85;;;;;;;30.87;24.57;98694.97;5009866;28;20031;-91
2023/07/01 11:00:53;;;;;;;1.98;1.40;;;;;;;30.85;24.75;98694.59;4977051;28;20090;-90
2023/07/01 11:03:34;;;;;;;2.22;1.40;;;;;;;31.01;24.61;98697.53;4992474;28;20027;-89
2023/07/01 11:06:04;;;;;;;4.10;1.77;;;;;;;30.99;24.79;98680.47;4993214;28;20095;-90
2023/07/01 11:08:30;;;;;;;3.75;1.60;;;;;;;30.99;24.41;98674.91;4976926;28;20035;-90
2023/07/01 11:10:56;;;;;;;2.47;1.80;;;;;;;31.12;24.29;98674.31;4975229;28;20495;-89
2023/07/01 11:13:21;;;;;;;2.20;1.60;;;;;;;31.18;25.60;98673.38;4960580;28;20031;-89
2023/07/01 11:16:06;;;;;;;4.13;1.60;;;;;;;31.33;25.02;98668.34;4980751;28;20124;-89
2023/07/01 11:18:48;;;;;;;1.83;1.40;;;;;;;31.16;24.42;98659.13;4979094;28;20026;-89
2023/07/01 11:21:20;;;;;;;2.20;1.70;;;;;;;31.14;25.79;98655.97;4978485;28;20035;-89
2023/07/01 11:23:58;;;;;;;1.90;1.30;;;;;;;31.35;25.12;98657.56;4979993;28;20053;-90
2023/07/01 11:26:27;;;;;;;1.77;1.40;;;;;;;31.42;23.50;98665.00;4996147;28;20030;-90
2023/07/01 11:28:52;;;;;;;1.98;1.40;;;;;;;31.40;22.69;98657.09;4978926;28;20027;-90
2023/07/01 11:31:20;;;;;;;2.42;1.60;;;;;;;31.25;23.69;98641.09;4980198;28;20035;-90
2023/07/01 11:33:47;;;;;;;2.30;1.52;;;;;;;31.32;24.97;98650.09;4980563;28;20035;-89
2023/07/01 11:36:14;;;;;;;1.70;1.45;;;;;;;31.39;24.54;98649.16;4979676;28;20041;-90
2023/07/01 11:38:42;;;;;;;2.70;1.77;;;;;;;31.53;24.25;98646.13;4980039;28;20030;-89